sensor_id;sensor_type;location;lat;lon;timestamp;P1;durP1;ratioP1;P2;durP2;ratioP2
32323;SDS011;25666;44.350;9.222;2023-07-20T00:01:15;23.00;;;11.68;;
32323;SDS011;25666;44.350;9.222;2023-07-20T00:03:40;18.90;;;10.13;;
32323;SDS011;25666;44.350;9.222;2023-07-20T00:06:06;20.80;;;9.35;;
32323;SDS011;25666;44.350;9.222;2023-07-20T00:08:32;19.42;;;9.68;;
32323;SDS011;25666;44.350;9.222;2023-07-20T00:10:58;16.35;;;10.07;;
32323;SDS011;25666;44.350;9.222;2023-07-20T00:13:25;12.93;;;9.00;;
32323;SDS011;25666;44.350;9.222;2023-07-20T00:15:51;21.77;;;10.60;;
32323;SDS011;25666;44.350;9.222;2023-07-20T00:18:17;26.50;;;10.98;;
32323;SDS011;25666;44.350;9.222;2023-07-20T00:20:42;17.83;;;9.68;;
32323;SDS011;25666;44.350;9.222;2023-07-20T00:23:08;17.70;;;9.52;;
32323;SDS011;25666;44.350;9.222;2023-07-20T00:25:34;18.55;;;9.05;;
32323;SDS011;25666;44.350;9.222;2023-07-20T00:28:01;25.30;;;10.45;;
32323;SDS011;25666;44.350;9.222;2023-07-20T00:30:26;18.67;;;9.88;;
32323;SDS011;25666;44.350;9.222;2023-07-20T00:32:52;21.25;;;9.63;;
32323;SDS011;25666;44.350;9.222;2023-07-20T00:35:18;22.67;;;10.02;;
32323;SDS011;25666;44.350;9.222;2023-07-20T00:37:43;22.77;;;9.32;;
32323;SDS011;25666;44.350;9.222;2023-07-20T00:40:09;25.75;;;10.35;;
32323;SDS011;25666;44.350;9.222;2023-07-20T00:42:34;23.65;;;10.25;;
32323;SDS011;25666;44.350;9.222;2023-07-20T00:45:01;23.35;;;9.35;;
32323;SDS011;25666;44.350;9.222;2023-07-20T00:47:28;20.38;;;9.00;;
32323;SDS011;25666;44.350;9.222;2023-07-20T00:49:53;21.05;;;9.20;;
32323;SDS011;25666;44.350;9.222;2023-07-20T00:52:20;15.90;;;9.30;;
32323;SDS011;25666;44.350;9.222;2023-07-20T00:54:48;20.95;;;11.55;;
32323;SDS011;25666;44.350;9.222;2023-07-20T00:57:14;21.30;;;8.93;;
32323;SDS011;25666;44.350;9.222;2023-07-20T00:59:41;20.23;;;11.38;;
32323;SDS011;25666;44.350;9.222;2023-07-20T01:02:06;16.88;;;9.20;;
32323;SDS011;25666;44.350;9.222;2023-07-20T01:04:32;19.63;;;8.68;;
32323;SDS011;25666;44.350;9.222;2023-07-20T01:07:10;21.98;;;11.32;;
32323;SDS011;25666;44.350;9.222;2023-07-20T01:12:27;25.65;;;9.88;;
32323;SDS011;25666;44.350;9.222;2023-07-20T01:15:13;19.35;;;9.93;;
32323;SDS011;25666;44.350;9.222;2023-07-20T01:17:39;15.70;;;9.73;;
32323;SDS011;25666;44.350;9.222;2023-07-20T01:20:07;18.60;;;10.27;;
32323;SDS011;25666;44.350;9.222;2023-07-20T01:25:11;27.52;;;10.10;;
32323;SDS011;25666;44.350;9.222;2023-07-20T01:30:25;20.42;;;10.68;;
32323;SDS011;25666;44.350;9.222;2023-07-20T01:33:19;25.27;;;9.75;;
32323;SDS011;25666;44.350;9.222;2023-07-20T01:35:50;24.08;;;10.20;;
32323;SDS011;25666;44.350;9.222;2023-07-20T01:38:19;27.55;;;10.80;;
32323;SDS011;25666;44.350;9.222;2023-07-20T01:40:48;28.40;;;9.38;;
32323;SDS011;25666;44.350;9.222;2023-07-20T01:43:14;16.08;;;9.85;;
32323;SDS011;25666;44.350;9.222;2023-07-20T01:45:42;15.52;;;10.07;;
32323;SDS011;25666;44.350;9.222;2023-07-20T01:48:07;27.80;;;9.57;;
32323;SDS011;25666;44.350;9.222;2023-07-20T01:50:33;23.08;;;11.23;;
32323;SDS011;25666;44.350;9.222;2023-07-20T01:53:00;28.08;;;10.95;;
32323;SDS011;25666;44.350;9.222;2023-07-20T01:55:26;18.88;;;10.23;;
32323;SDS011;25666;44.350;9.222;2023-07-20T01:57:51;18.52;;;10.23;;
32323;SDS011;25666;44.350;9.222;2023-07-20T02:00:17;19.45;;;10.20;;
32323;SDS011;25666;44.350;9.222;2023-07-20T02:02:46;19.77;;;10.63;;
32323;SDS011;25666;44.350;9.222;2023-07-20T02:05:12;17.90;;;9.77;;
32323;SDS011;25666;44.350;9.222;2023-07-20T02:07:38;20.15;;;10.80;;
32323;SDS011;25666;44.350;9.222;2023-07-20T02:10:03;27.58;;;9.68;;
32323;SDS011;25666;44.350;9.222;2023-07-20T02:12:29;18.77;;;9.82;;
32323;SDS011;25666;44.350;9.222;2023-07-20T02:14:55;21.90;;;9.18;;
32323;SDS011;25666;44.350;9.222;2023-07-20T02:17:20;22.85;;;10.25;;
32323;SDS011;25666;44.350;9.222;2023-07-20T02:19:46;19.25;;;9.73;;
32323;SDS011;25666;44.350;9.222;2023-07-20T02:22:14;18.63;;;10.85;;
32323;SDS011;25666;44.350;9.222;2023-07-20T02:24:40;20.60;;;9.68;;
32323;SDS011;25666;44.350;9.222;2023-07-20T02:27:05;18.65;;;10.60;;
32323;SDS011;25666;44.350;9.222;2023-07-20T02:29:32;20.35;;;9.40;;
32323;SDS011;25666;44.350;9.222;2023-07-20T02:31:57;17.50;;;10.15;;
32323;SDS011;25666;44.350;9.222;2023-07-20T02:34:24;16.63;;;9.82;;
32323;SDS011;25666;44.350;9.222;2023-07-20T02:36:49;27.02;;;10.27;;
32323;SDS011;25666;44.350;9.222;2023-07-20T02:39:14;19.65;;;10.13;;
32323;SDS011;25666;44.350;9.222;2023-07-20T02:41:41;25.40;;;11.05;;
32323;SDS011;25666;44.350;9.222;2023-07-20T02:44:06;25.85;;;10.27;;
32323;SDS011;25666;44.350;9.222;2023-07-20T02:46:32;21.63;;;10.75;;
32323;SDS011;25666;44.350;9.222;2023-07-20T02:48:59;26.02;;;11.68;;
32323;SDS011;25666;44.350;9.222;2023-07-20T02:51:24;21.27;;;11.68;;
32323;SDS011;25666;44.350;9.222;2023-07-20T02:53:50;20.50;;;9.55;;
32323;SDS011;25666;44.350;9.222;2023-07-20T02:56:15;17.20;;;9.20;;
32323;SDS011;25666;44.350;9.222;2023-07-20T02:58:41;22.08;;;11.07;;
32323;SDS011;25666;44.350;9.222;2023-07-20T03:01:11;20.60;;;10.63;;
32323;SDS011;25666;44.350;9.222;2023-07-20T03:03:37;28.23;;;12.10;;
32323;SDS011;25666;44.350;9.222;2023-07-20T03:06:03;21.25;;;10.07;;
32323;SDS011;25666;44.350;9.222;2023-07-20T03:08:29;17.17;;;10.48;;
32323;SDS011;25666;44.350;9.222;2023-07-20T03:10:55;19.80;;;10.18;;
32323;SDS011;25666;44.350;9.222;2023-07-20T03:13:20;24.60;;;9.73;;
32323;SDS011;25666;44.350;9.222;2023-07-20T03:15:46;20.42;;;9.98;;
32323;SDS011;25666;44.350;9.222;2023-07-20T03:18:11;21.65;;;11.18;;
32323;SDS011;25666;44.350;9.222;2023-07-20T03:20:37;25.05;;;11.55;;
32323;SDS011;25666;44.350;9.222;2023-07-20T03:23:03;23.13;;;10.25;;
32323;SDS011;25666;44.350;9.222;2023-07-20T03:25:29;25.33;;;11.15;;
32323;SDS011;25666;44.350;9.222;2023-07-20T03:27:54;25.63;;;10.70;;
32323;SDS011;25666;44.350;9.222;2023-07-20T03:30:20;26.85;;;11.75;;
32323;SDS011;25666;44.350;9.222;2023-07-20T03:32:46;26.35;;;12.25;;
32323;SDS011;25666;44.350;9.222;2023-07-20T03:35:11;20.10;;;10.52;;
32323;SDS011;25666;44.350;9.222;2023-07-20T03:37:37;17.48;;;9.35;;
32323;SDS011;25666;44.350;9.222;2023-07-20T03:40:03;21.77;;;9.48;;
32323;SDS011;25666;44.350;9.222;2023-07-20T03:42:30;27.05;;;10.32;;
32323;SDS011;25666;44.350;9.222;2023-07-20T03:44:55;28.83;;;10.50;;
32323;SDS011;25666;44.350;9.222;2023-07-20T03:47:21;27.13;;;11.15;;
32323;SDS011;25666;44.350;9.222;2023-07-20T03:49:47;28.90;;;10.82;;
32323;SDS011;25666;44.350;9.222;2023-07-20T03:52:12;20.63;;;9.93;;
32323;SDS011;25666;44.350;9.222;2023-07-20T03:54:38;25.63;;;11.07;;
32323;SDS011;25666;44.350;9.222;2023-07-20T03:57:04;24.15;;;10.23;;
32323;SDS011;25666;44.350;9.222;2023-07-20T03:59:29;25.77;;;11.60;;
32323;SDS011;25666;44.350;9.222;2023-07-20T04:01:55;25.42;;;12.55;;
32323;SDS011;25666;44.350;9.222;2023-07-20T04:04:20;21.65;;;10.65;;
32323;SDS011;25666;44.350;9.222;2023-07-20T04:06:46;18.02;;;10.35;;
32323;SDS011;25666;44.350;9.222;2023-07-20T04:09:12;25.20;;;11.52;;
32323;SDS011;25666;44.350;9.222;2023-07-20T04:11:37;20.60;;;10.20;;
32323;SDS011;25666;44.350;9.222;2023-07-20T04:14:03;20.30;;;9.98;;
32323;SDS011;25666;44.350;9.222;2023-07-20T04:16:29;24.55;;;11.25;;
32323;SDS011;25666;44.350;9.222;2023-07-20T04:18:55;30.95;;;12.38;;
32323;SDS011;25666;44.350;9.222;2023-07-20T04:21:21;24.15;;;11.05;;
32323;SDS011;25666;44.350;9.222;2023-07-20T04:23:47;20.58;;;9.88;;
32323;SDS011;25666;44.350;9.222;2023-07-20T04:26:13;22.17;;;12.02;;
32323;SDS011;25666;44.350;9.222;2023-07-20T04:28:40;21.60;;;10.98;;
32323;SDS011;25666;44.350;9.222;2023-07-20T04:31:15;20.23;;;11.13;;
32323;SDS011;25666;44.350;9.222;2023-07-20T04:33:42;21.38;;;10.88;;
32323;SDS011;25666;44.350;9.222;2023-07-20T04:36:08;30.98;;;11.40;;
32323;SDS011;25666;44.350;9.222;2023-07-20T04:38:34;18.02;;;10.43;;
32323;SDS011;25666;44.350;9.222;2023-07-20T04:41:07;20.88;;;11.02;;
32323;SDS011;25666;44.350;9.222;2023-07-20T04:43:40;18.83;;;10.07;;
32323;SDS011;25666;44.350;9.222;2023-07-20T04:46:08;19.08;;;11.00;;
32323;SDS011;25666;44.350;9.222;2023-07-20T04:48:35;22.45;;;11.02;;
32323;SDS011;25666;44.350;9.222;2023-07-20T04:51:01;25.83;;;11.40;;
32323;SDS011;25666;44.350;9.222;2023-07-20T04:53:27;23.35;;;10.68;;
32323;SDS011;25666;44.350;9.222;2023-07-20T04:55:53;22.55;;;10.43;;
32323;SDS011;25666;44.350;9.222;2023-07-20T04:58:20;22.80;;;11.07;;
32323;SDS011;25666;44.350;9.222;2023-07-20T05:00:50;20.35;;;10.25;;
32323;SDS011;25666;44.350;9.222;2023-07-20T05:03:16;23.73;;;10.40;;
32323;SDS011;25666;44.350;9.222;2023-07-20T05:05:42;28.35;;;11.20;;
32323;SDS011;25666;44.350;9.222;2023-07-20T05:08:07;12.20;;;9.45;;
32323;SDS011;25666;44.350;9.222;2023-07-20T05:10:33;23.17;;;11.70;;
32323;SDS011;25666;44.350;9.222;2023-07-20T05:12:59;25.48;;;11.15;;
32323;SDS011;25666;44.350;9.222;2023-07-20T05:15:25;21.10;;;10.10;;
32323;SDS011;25666;44.350;9.222;2023-07-20T05:17:52;14.82;;;10.45;;
32323;SDS011;25666;44.350;9.222;2023-07-20T05:20:17;19.33;;;11.23;;
32323;SDS011;25666;44.350;9.222;2023-07-20T05:22:43;20.05;;;10.38;;
32323;SDS011;25666;44.350;9.222;2023-07-20T05:25:09;18.77;;;10.07;;
32323;SDS011;25666;44.350;9.222;2023-07-20T05:27:36;21.27;;;12.40;;
32323;SDS011;25666;44.350;9.222;2023-07-20T05:30:03;21.92;;;11.30;;
32323;SDS011;25666;44.350;9.222;2023-07-20T05:32:29;22.80;;;11.80;;
32323;SDS011;25666;44.350;9.222;2023-07-20T05:34:55;21.13;;;10.23;;
32323;SDS011;25666;44.350;9.222;2023-07-20T05:37:21;22.23;;;11.32;;
32323;SDS011;25666;44.350;9.222;2023-07-20T05:39:46;20.77;;;9.77;;
32323;SDS011;25666;44.350;9.222;2023-07-20T05:42:12;28.95;;;11.65;;
32323;SDS011;25666;44.350;9.222;2023-07-20T05:44:37;28.80;;;10.98;;
32323;SDS011;25666;44.350;9.222;2023-07-20T05:47:03;18.48;;;10.88;;
32323;SDS011;25666;44.350;9.222;2023-07-20T05:49:29;24.20;;;10.02;;
32323;SDS011;25666;44.350;9.222;2023-07-20T05:51:55;26.90;;;10.57;;
32323;SDS011;25666;44.350;9.222;2023-07-20T05:54:22;22.80;;;11.50;;
32323;SDS011;25666;44.350;9.222;2023-07-20T05:56:49;27.77;;;11.82;;
32323;SDS011;25666;44.350;9.222;2023-07-20T05:59:15;16.10;;;8.95;;
32323;SDS011;25666;44.350;9.222;2023-07-20T06:01:41;21.25;;;9.25;;
32323;SDS011;25666;44.350;9.222;2023-07-20T06:04:08;22.33;;;10.98;;
32323;SDS011;25666;44.350;9.222;2023-07-20T06:06:34;15.77;;;10.18;;
32323;SDS011;25666;44.350;9.222;2023-07-20T06:09:00;19.52;;;8.90;;
32323;SDS011;25666;44.350;9.222;2023-07-20T06:11:29;26.33;;;10.52;;
32323;SDS011;25666;44.350;9.222;2023-07-20T06:13:56;15.98;;;8.55;;
32323;SDS011;25666;44.350;9.222;2023-07-20T06:16:21;28.98;;;10.00;;
32323;SDS011;25666;44.350;9.222;2023-07-20T06:18:47;27.58;;;9.25;;
32323;SDS011;25666;44.350;9.222;2023-07-20T06:21:13;23.48;;;9.05;;
32323;SDS011;25666;44.350;9.222;2023-07-20T06:23:38;25.00;;;11.20;;
32323;SDS011;25666;44.350;9.222;2023-07-20T06:26:05;25.77;;;11.70;;
32323;SDS011;25666;44.350;9.222;2023-07-20T06:28:32;39.78;;;14.40;;
32323;SDS011;25666;44.350;9.222;2023-07-20T06:31:01;21.75;;;12.45;;
32323;SDS011;25666;44.350;9.222;2023-07-20T06:33:28;27.20;;;12.05;;
32323;SDS011;25666;44.350;9.222;2023-07-20T06:35:54;25.30;;;12.07;;
32323;SDS011;25666;44.350;9.222;2023-07-20T06:38:19;20.13;;;9.70;;
32323;SDS011;25666;44.350;9.222;2023-07-20T06:40:48;19.35;;;10.13;;
32323;SDS011;25666;44.350;9.222;2023-07-20T06:43:14;22.02;;;9.07;;
32323;SDS011;25666;44.350;9.222;2023-07-20T06:45:40;17.05;;;8.90;;
32323;SDS011;25666;44.350;9.222;2023-07-20T06:48:05;17.15;;;9.13;;
32323;SDS011;25666;44.350;9.222;2023-07-20T06:50:31;17.35;;;9.20;;
32323;SDS011;25666;44.350;9.222;2023-07-20T06:52:58;23.15;;;7.88;;
32323;SDS011;25666;44.350;9.222;2023-07-20T06:55:25;21.65;;;9.68;;
32323;SDS011;25666;44.350;9.222;2023-07-20T06:57:51;16.20;;;8.98;;
32323;SDS011;25666;44.350;9.222;2023-07-20T07:00:17;19.90;;;9.40;;
32323;SDS011;25666;44.350;9.222;2023-07-20T07:02:42;23.92;;;8.73;;
32323;SDS011;25666;44.350;9.222;2023-07-20T07:05:08;13.07;;;8.57;;
32323;SDS011;25666;44.350;9.222;2023-07-20T07:07:33;13.50;;;8.98;;
32323;SDS011;25666;44.350;9.222;2023-07-20T07:09:59;14.43;;;8.70;;
32323;SDS011;25666;44.350;9.222;2023-07-20T07:12:25;19.55;;;9.35;;
32323;SDS011;25666;44.350;9.222;2023-07-20T07:14:51;17.17;;;9.10;;
32323;SDS011;25666;44.350;9.222;2023-07-20T07:17:16;14.40;;;9.30;;
32323;SDS011;25666;44.350;9.222;2023-07-20T07:19:41;14.40;;;8.70;;
32323;SDS011;25666;44.350;9.222;2023-07-20T07:22:07;16.55;;;9.30;;
32323;SDS011;25666;44.350;9.222;2023-07-20T07:24:33;20.83;;;9.73;;
32323;SDS011;25666;44.350;9.222;2023-07-20T07:27:01;14.43;;;8.93;;
32323;SDS011;25666;44.350;9.222;2023-07-20T07:29:27;18.63;;;9.95;;
32323;SDS011;25666;44.350;9.222;2023-07-20T07:31:53;19.05;;;9.60;;
32323;SDS011;25666;44.350;9.222;2023-07-20T07:34:18;16.75;;;9.45;;
32323;SDS011;25666;44.350;9.222;2023-07-20T07:36:44;13.48;;;9.10;;
32323;SDS011;25666;44.350;9.222;2023-07-20T07:39:10;16.35;;;10.52;;
32323;SDS011;25666;44.350;9.222;2023-07-20T07:41:35;19.88;;;9.13;;
32323;SDS011;25666;44.350;9.222;2023-07-20T07:44:01;13.23;;;9.52;;
32323;SDS011;25666;44.350;9.222;2023-07-20T07:46:26;13.52;;;9.57;;
32323;SDS011;25666;44.350;9.222;2023-07-20T07:48:52;15.77;;;10.13;;
32323;SDS011;25666;44.350;9.222;2023-07-20T07:51:18;12.35;;;9.85;;
32323;SDS011;25666;44.350;9.222;2023-07-20T07:53:45;22.48;;;10.32;;
32323;SDS011;25666;44.350;9.222;2023-07-20T07:56:11;15.07;;;8.70;;
32323;SDS011;25666;44.350;9.222;2023-07-20T07:58:37;16.15;;;9.43;;
32323;SDS011;25666;44.350;9.222;2023-07-20T08:01:03;15.45;;;9.38;;
32323;SDS011;25666;44.350;9.222;2023-07-20T08:03:29;14.27;;;9.40;;
32323;SDS011;25666;44.350;9.222;2023-07-20T08:05:55;23.95;;;10.07;;
32323;SDS011;25666;44.350;9.222;2023-07-20T08:08:21;17.02;;;8.48;;
32323;SDS011;25666;44.350;9.222;2023-07-20T08:10:47;12.50;;;7.47;;
32323;SDS011;25666;44.350;9.222;2023-07-20T08:13:13;18.67;;;8.07;;
32323;SDS011;25666;44.350;9.222;2023-07-20T08:15:38;21.92;;;8.23;;
32323;SDS011;25666;44.350;9.222;2023-07-20T08:18:04;14.50;;;7.00;;
32323;SDS011;25666;44.350;9.222;2023-07-20T08:20:31;16.58;;;9.07;;
32323;SDS011;25666;44.350;9.222;2023-07-20T08:22:57;19.35;;;8.05;;
32323;SDS011;25666;44.350;9.222;2023-07-20T08:25:24;18.27;;;8.30;;
32323;SDS011;25666;44.350;9.222;2023-07-20T08:27:50;18.67;;;8.35;;
32323;SDS011;25666;44.350;9.222;2023-07-20T08:30:16;17.83;;;8.95;;
32323;SDS011;25666;44.350;9.222;2023-07-20T08:32:42;17.20;;;7.60;;
32323;SDS011;25666;44.350;9.222;2023-07-20T08:35:08;21.83;;;8.93;;
32323;SDS011;25666;44.350;9.222;2023-07-20T08:37:34;10.77;;;7.90;;
32323;SDS011;25666;44.350;9.222;2023-07-20T08:39:59;20.15;;;7.22;;
32323;SDS011;25666;44.350;9.222;2023-07-20T08:42:25;22.80;;;9.90;;
32323;SDS011;25666;44.350;9.222;2023-07-20T08:44:51;15.88;;;9.25;;
32323;SDS011;25666;44.350;9.222;2023-07-20T08:47:19;45.22;;;8.57;;
32323;SDS011;25666;44.350;9.222;2023-07-20T08:49:48;20.80;;;8.90;;
32323;SDS011;25666;44.350;9.222;2023-07-20T08:52:13;19.73;;;8.23;;
32323;SDS011;25666;44.350;9.222;2023-07-20T08:54:39;16.58;;;9.05;;
32323;SDS011;25666;44.350;9.222;2023-07-20T08:57:05;17.15;;;9.07;;
32323;SDS011;25666;44.350;9.222;2023-07-20T08:59:31;14.95;;;8.45;;
32323;SDS011;25666;44.350;9.222;2023-07-20T09:02:00;17.77;;;8.32;;
32323;SDS011;25666;44.350;9.222;2023-07-20T09:04:27;19.77;;;8.95;;
32323;SDS011;25666;44.350;9.222;2023-07-20T09:06:52;25.35;;;8.95;;
32323;SDS011;25666;44.350;9.222;2023-07-20T09:09:18;16.00;;;8.48;;
32323;SDS011;25666;44.350;9.222;2023-07-20T09:11:47;19.45;;;8.80;;
32323;SDS011;25666;44.350;9.222;2023-07-20T09:14:14;23.92;;;9.35;;
32323;SDS011;25666;44.350;9.222;2023-07-20T09:16:55;22.10;;;8.77;;
32323;SDS011;25666;44.350;9.222;2023-07-20T09:19:21;21.98;;;8.38;;
32323;SDS011;25666;44.350;9.222;2023-07-20T09:21:50;27.48;;;9.77;;
32323;SDS011;25666;44.350;9.222;2023-07-20T09:24:17;24.95;;;10.27;;
32323;SDS011;25666;44.350;9.222;2023-07-20T09:26:45;21.63;;;10.60;;
32323;SDS011;25666;44.350;9.222;2023-07-20T09:29:18;25.13;;;10.10;;
32323;SDS011;25666;44.350;9.222;2023-07-20T09:31:58;20.05;;;10.07;;
32323;SDS011;25666;44.350;9.222;2023-07-20T09:34:30;22.08;;;10.82;;
32323;SDS011;25666;44.350;9.222;2023-07-20T09:36:57;21.45;;;10.57;;
32323;SDS011;25666;44.350;9.222;2023-07-20T09:39:23;21.85;;;11.38;;
32323;SDS011;25666;44.350;9.222;2023-07-20T09:41:49;18.77;;;11.55;;
32323;SDS011;25666;44.350;9.222;2023-07-20T09:44:16;22.40;;;10.90;;
32323;SDS011;25666;44.350;9.222;2023-07-20T09:46:48;19.20;;;10.73;;
32323;SDS011;25666;44.350;9.222;2023-07-20T09:49:14;18.80;;;11.70;;
32323;SDS011;25666;44.350;9.222;2023-07-20T09:51:42;27.08;;;12.25;;
32323;SDS011;25666;44.350;9.222;2023-07-20T09:54:09;21.80;;;11.48;;
32323;SDS011;25666;44.350;9.222;2023-07-20T09:56:35;19.48;;;11.30;;
32323;SDS011;25666;44.350;9.222;2023-07-20T09:59:03;23.00;;;12.80;;
32323;SDS011;25666;44.350;9.222;2023-07-20T10:01:29;21.33;;;12.15;;
32323;SDS011;25666;44.350;9.222;2023-07-20T10:03:56;28.60;;;12.68;;
32323;SDS011;25666;44.350;9.222;2023-07-20T10:06:24;20.95;;;11.77;;
32323;SDS011;25666;44.350;9.222;2023-07-20T10:08:52;23.90;;;10.43;;
32323;SDS011;25666;44.350;9.222;2023-07-20T10:11:18;26.60;;;11.25;;
32323;SDS011;25666;44.350;9.222;2023-07-20T10:13:46;31.92;;;10.48;;
32323;SDS011;25666;44.350;9.222;2023-07-20T10:16:22;20.08;;;8.98;;
32323;SDS011;25666;44.350;9.222;2023-07-20T10:18:56;19.58;;;10.38;;
32323;SDS011;25666;44.350;9.222;2023-07-20T10:21:32;26.48;;;10.70;;
32323;SDS011;25666;44.350;9.222;2023-07-20T10:24:03;28.23;;;10.15;;
32323;SDS011;25666;44.350;9.222;2023-07-20T10:26:30;29.50;;;11.00;;
32323;SDS011;25666;44.350;9.222;2023-07-20T10:28:56;21.38;;;11.75;;
32323;SDS011;25666;44.350;9.222;2023-07-20T10:31:23;23.02;;;10.90;;
32323;SDS011;25666;44.350;9.222;2023-07-20T10:33:50;22.42;;;11.38;;
32323;SDS011;25666;44.350;9.222;2023-07-20T10:36:20;28.05;;;10.80;;
32323;SDS011;25666;44.350;9.222;2023-07-20T10:38:52;24.52;;;11.80;;
32323;SDS011;25666;44.350;9.222;2023-07-20T10:41:20;29.48;;;11.63;;
32323;SDS011;25666;44.350;9.222;2023-07-20T10:43:49;27.25;;;10.98;;
32323;SDS011;25666;44.350;9.222;2023-07-20T10:46:33;28.98;;;11.45;;
32323;SDS011;25666;44.350;9.222;2023-07-20T10:49:03;27.10;;;12.20;;
32323;SDS011;25666;44.350;9.222;2023-07-20T10:51:30;24.03;;;10.87;;
32323;SDS011;25666;44.350;9.222;2023-07-20T10:54:03;25.92;;;13.65;;
32323;SDS011;25666;44.350;9.222;2023-07-20T10:56:28;22.83;;;11.60;;
32323;SDS011;25666;44.350;9.222;2023-07-20T10:58:58;25.52;;;12.02;;
32323;SDS011;25666;44.350;9.222;2023-07-20T11:01:27;32.17;;;12.77;;
32323;SDS011;25666;44.350;9.222;2023-07-20T11:03:57;24.05;;;10.77;;
32323;SDS011;25666;44.350;9.222;2023-07-20T11:11:37;24.52;;;11.48;;
32323;SDS011;25666;44.350;9.222;2023-07-20T11:14:10;29.20;;;12.43;;
32323;SDS011;25666;44.350;9.222;2023-07-20T11:16:47;32.63;;;13.30;;
32323;SDS011;25666;44.350;9.222;2023-07-20T11:19:18;36.20;;;12.13;;
32323;SDS011;25666;44.350;9.222;2023-07-20T11:21:58;29.48;;;13.05;;
32323;SDS011;25666;44.350;9.222;2023-07-20T11:24:24;30.98;;;11.88;;
32323;SDS011;25666;44.350;9.222;2023-07-20T11:26:51;23.67;;;12.10;;
32323;SDS011;25666;44.350;9.222;2023-07-20T11:29:18;28.02;;;11.27;;
32323;SDS011;25666;44.350;9.222;2023-07-20T11:31:45;42.20;;;12.20;;
32323;SDS011;25666;44.350;9.222;2023-07-20T11:34:12;38.42;;;12.75;;
32323;SDS011;25666;44.350;9.222;2023-07-20T11:36:49;28.77;;;12.05;;
32323;SDS011;25666;44.350;9.222;2023-07-20T11:39:16;32.33;;;12.95;;
32323;SDS011;25666;44.350;9.222;2023-07-20T11:41:48;27.02;;;12.07;;
32323;SDS011;25666;44.350;9.222;2023-07-20T11:46:42;27.33;;;11.80;;
32323;SDS011;25666;44.350;9.222;2023-07-20T11:49:09;28.63;;;12.18;;
32323;SDS011;25666;44.350;9.222;2023-07-20T11:51:35;26.88;;;11.98;;
32323;SDS011;25666;44.350;9.222;2023-07-20T11:54:02;31.33;;;11.40;;
32323;SDS011;25666;44.350;9.222;2023-07-20T11:56:28;35.80;;;12.20;;
32323;SDS011;25666;44.350;9.222;2023-07-20T11:58:54;28.77;;;12.75;;
32323;SDS011;25666;44.350;9.222;2023-07-20T12:01:21;30.80;;;11.98;;
32323;SDS011;25666;44.350;9.222;2023-07-20T12:03:48;28.65;;;11.82;;
32323;SDS011;25666;44.350;9.222;2023-07-20T12:06:14;32.88;;;12.93;;
32323;SDS011;25666;44.350;9.222;2023-07-20T12:08:42;46.30;;;12.73;;
32323;SDS011;25666;44.350;9.222;2023-07-20T12:11:09;24.13;;;10.88;;
32323;SDS011;25666;44.350;9.222;2023-07-20T12:13:44;34.70;;;10.93;;
32323;SDS011;25666;44.350;9.222;2023-07-20T12:16:10;28.13;;;12.45;;
32323;SDS011;25666;44.350;9.222;2023-07-20T12:18:38;22.45;;;10.32;;
32323;SDS011;25666;44.350;9.222;2023-07-20T12:21:05;27.85;;;12.05;;
32323;SDS011;25666;44.350;9.222;2023-07-20T12:23:38;26.48;;;11.02;;
32323;SDS011;25666;44.350;9.222;2023-07-20T12:26:08;27.27;;;12.23;;
32323;SDS011;25666;44.350;9.222;2023-07-20T12:28:40;25.55;;;11.77;;
32323;SDS011;25666;44.350;9.222;2023-07-20T12:31:07;30.33;;;11.32;;
32323;SDS011;25666;44.350;9.222;2023-07-20T12:33:33;40.72;;;13.07;;
32323;SDS011;25666;44.350;9.222;2023-07-20T12:35:59;34.95;;;12.60;;
32323;SDS011;25666;44.350;9.222;2023-07-20T12:38:25;32.30;;;11.68;;
32323;SDS011;25666;44.350;9.222;2023-07-20T12:40:52;23.73;;;10.68;;
32323;SDS011;25666;44.350;9.222;2023-07-20T12:43:20;29.20;;;11.48;;
32323;SDS011;25666;44.350;9.222;2023-07-20T12:45:46;24.95;;;12.18;;
32323;SDS011;25666;44.350;9.222;2023-07-20T12:48:12;21.25;;;11.43;;
32323;SDS011;25666;44.350;9.222;2023-07-20T12:50:37;27.90;;;11.43;;
32323;SDS011;25666;44.350;9.222;2023-07-20T12:53:03;23.15;;;12.20;;
32323;SDS011;25666;44.350;9.222;2023-07-20T12:55:29;32.80;;;12.52;;
32323;SDS011;25666;44.350;9.222;2023-07-20T12:57:54;26.25;;;12.18;;
32323;SDS011;25666;44.350;9.222;2023-07-20T13:00:20;40.03;;;11.63;;
32323;SDS011;25666;44.350;9.222;2023-07-20T13:02:49;30.80;;;11.27;;
32323;SDS011;25666;44.350;9.222;2023-07-20T13:05:15;31.98;;;11.35;;
32323;SDS011;25666;44.350;9.222;2023-07-20T13:07:41;29.52;;;11.43;;
32323;SDS011;25666;44.350;9.222;2023-07-20T13:10:07;26.70;;;12.40;;
32323;SDS011;25666;44.350;9.222;2023-07-20T13:12:34;31.08;;;11.68;;
32323;SDS011;25666;44.350;9.222;2023-07-20T13:15:04;27.75;;;10.88;;
32323;SDS011;25666;44.350;9.222;2023-07-20T13:17:31;26.77;;;11.57;;
32323;SDS011;25666;44.350;9.222;2023-07-20T13:19:58;24.35;;;11.15;;
32323;SDS011;25666;44.350;9.222;2023-07-20T13:22:24;22.65;;;11.23;;
32323;SDS011;25666;44.350;9.222;2023-07-20T13:24:49;28.10;;;11.98;;
32323;SDS011;25666;44.350;9.222;2023-07-20T13:27:16;28.33;;;10.90;;
32323;SDS011;25666;44.350;9.222;2023-07-20T13:29:42;30.30;;;12.43;;
32323;SDS011;25666;44.350;9.222;2023-07-20T13:32:08;24.95;;;10.82;;
32323;SDS011;25666;44.350;9.222;2023-07-20T13:34:34;25.23;;;12.65;;
32323;SDS011;25666;44.350;9.222;2023-07-20T13:37:00;25.77;;;11.35;;
32323;SDS011;25666;44.350;9.222;2023-07-20T13:39:26;38.40;;;13.10;;
32323;SDS011;25666;44.350;9.222;2023-07-20T13:41:54;23.48;;;11.85;;
32323;SDS011;25666;44.350;9.222;2023-07-20T13:44:20;27.30;;;11.15;;
32323;SDS011;25666;44.350;9.222;2023-07-20T13:46:46;26.58;;;10.65;;
32323;SDS011;25666;44.350;9.222;2023-07-20T13:49:12;22.58;;;11.60;;
32323;SDS011;25666;44.350;9.222;2023-07-20T13:51:37;25.38;;;11.05;;
32323;SDS011;25666;44.350;9.222;2023-07-20T13:54:03;27.30;;;11.82;;
32323;SDS011;25666;44.350;9.222;2023-07-20T13:56:28;38.00;;;11.82;;
32323;SDS011;25666;44.350;9.222;2023-07-20T13:58:54;26.92;;;11.90;;
32323;SDS011;25666;44.350;9.222;2023-07-20T14:01:20;39.22;;;13.80;;
32323;SDS011;25666;44.350;9.222;2023-07-20T14:03:48;23.00;;;10.82;;
32323;SDS011;25666;44.350;9.222;2023-07-20T14:06:13;26.70;;;12.43;;
32323;SDS011;25666;44.350;9.222;2023-07-20T14:08:40;27.75;;;11.82;;
32323;SDS011;25666;44.350;9.222;2023-07-20T14:11:06;37.85;;;11.52;;
32323;SDS011;25666;44.350;9.222;2023-07-20T14:13:31;27.98;;;11.90;;
32323;SDS011;25666;44.350;9.222;2023-07-20T14:15:57;27.55;;;12.45;;
32323;SDS011;25666;44.350;9.222;2023-07-20T14:18:23;32.33;;;12.10;;
32323;SDS011;25666;44.350;9.222;2023-07-20T14:20:48;26.38;;;11.18;;
32323;SDS011;25666;44.350;9.222;2023-07-20T14:23:14;28.45;;;11.55;;
32323;SDS011;25666;44.350;9.222;2023-07-20T14:25:40;32.83;;;12.98;;
32323;SDS011;25666;44.350;9.222;2023-07-20T14:28:05;32.65;;;11.77;;
32323;SDS011;25666;44.350;9.222;2023-07-20T14:30:32;25.65;;;11.57;;
32323;SDS011;25666;44.350;9.222;2023-07-20T14:32:58;32.97;;;11.93;;
32323;SDS011;25666;44.350;9.222;2023-07-20T14:35:23;28.88;;;10.68;;
32323;SDS011;25666;44.350;9.222;2023-07-20T14:37:49;23.63;;;11.13;;
32323;SDS011;25666;44.350;9.222;2023-07-20T14:40:15;26.63;;;12.45;;